Capitol Logistics 257


TBPB
Grantley Adams International Airport
Bridgetown, BB
KMIA
Miami International Airport
Miami, US

Route Details

Aircraft Information
Primary: Boeing 767-300BDSF
Backup: Not Available
Route Data
Distance: 1402nm
Sched. Duration: 4h 00m
Avg. Duration: 3h 67m (-33m)
Times Flown: 4
Recm'd Route: BGI UA555 ILURI MEEGL Y421 HAGIT Y308 FOWEE FLIPR6
Planned Altitude: 34,000ft
Origin Wx: TBPB 080600Z 09016KT 9999 VCSH SCT018 28/25 Q1015 NOSIG
Dest. Wx: KMIA 080553Z 11007KT 10SM FEW030 BKN250 29/24 A3010 RMK AO2 SLP191 T02890244 10300 20289 58014
Notes:

Financial History
Total Freight: 364,838lbs
Average Load: 91,210lbs/flt
Fuel Used: 161,326lbs
Avg. Fuel Used: 40,332lbs/flt
Fuel Expense: $100,022
Avg. Fuel Expense: $25,006
Avg. Fuel Cost: $0.62/lbs
Total Gross Income: $491,301
Pilot Pay: $876
Total Expenses: $53,269
Total Revenue: $334,069
Average Revenue: $122,825.24